Time;durP1;ratioP1;P1;durP2;ratioP2;P2;SDS_P1;SDS_P2;PMS_P1;PMS_P2;Temp;Humidity;BMP_temperature;BMP_pressure;BME280_temperature;BME280_humidity;BME280_pressure;Samples;Min_cycle;Max_cycle;Signal;HPM_P1;HPM_P2
2023/04/27 00:02:16;;;;;;;12.55;5.78;;;;;;;4.64;77.84;99550.03;4947528;28;20538;-61
2023/04/27 00:04:43;;;;;;;16.48;6.65;;;;;;;4.57;78.52;99554.47;4943350;28;20074;-61
2023/04/27 00:07:10;;;;;;;16.52;6.68;;;;;;;4.24;81.95;99554.22;4950254;28;20719;-62
2023/04/27 00:09:37;;;;;;;11.68;5.47;;;;;;;4.28;76.90;99555.50;4957167;28;20133;-61
2023/04/27 00:12:07;;;;;;;13.07;5.82;;;;;;;4.56;74.66;99544.03;4937596;28;20047;-62
2023/04/27 00:14:34;;;;;;;18.70;6.45;;;;;;;4.53;75.11;99547.91;4940299;28;20135;-62
2023/04/27 00:17:01;;;;;;;10.38;5.53;;;;;;;4.74;75.76;99552.28;4939622;28;20550;-61
2023/04/27 00:19:29;;;;;;;12.30;5.68;;;;;;;4.94;76.39;99545.25;4955208;28;20635;-61
2023/04/27 00:21:56;;;;;;;21.30;5.57;;;;;;;4.86;73.99;99541.94;4941235;28;20127;-61
2023/04/27 00:24:23;;;;;;;11.52;5.68;;;;;;;4.47;74.48;99546.03;4947630;28;20070;-61
2023/04/27 00:26:51;;;;;;;9.55;5.72;;;;;;;4.47;75.15;99554.81;4936077;28;20075;-61
2023/04/27 00:29:19;;;;;;;11.57;5.82;;;;;;;4.71;79.18;99555.34;4940572;28;20130;-61
2023/04/27 00:31:46;;;;;;;8.85;4.90;;;;;;;4.64;80.08;99551.84;4943985;28;20355;-61
2023/04/27 00:34:13;;;;;;;10.10;5.38;;;;;;;4.53;75.81;99546.06;4944917;28;20463;-61
2023/04/27 00:36:43;;;;;;;11.20;6.07;;;;;;;4.49;76.21;99552.78;4937976;28;20422;-61
2023/04/27 00:39:10;;;;;;;11.87;5.27;;;;;;;4.32;78.33;99551.47;4942522;28;20134;-61
2023/04/27 00:41:38;;;;;;;13.88;5.35;;;;;;;4.63;82.88;99552.84;4947488;28;20877;-61
2023/04/27 00:44:05;;;;;;;13.80;5.53;;;;;;;4.54;75.59;99555.69;4947627;28;20666;-61
2023/04/27 00:46:35;;;;;;;9.32;5.18;;;;;;;4.65;79.27;99556.16;4938941;28;20038;-61
2023/04/27 00:49:02;;;;;;;18.08;6.25;;;;;;;4.74;78.50;99550.47;4948057;28;20509;-61
2023/04/27 00:51:30;;;;;;;19.05;6.35;;;;;;;4.35;75.27;99548.41;4938199;28;20073;-61
2023/04/27 00:53:57;;;;;;;12.55;5.57;;;;;;;4.44;78.40;99543.75;4937211;28;20047;-61
2023/04/27 00:56:25;;;;;;;14.55;5.70;;;;;;;4.41;75.50;99546.81;4949142;28;20131;-61
2023/04/27 00:58:52;;;;;;;12.18;6.20;;;;;;;4.10;81.02;99556.78;4933449;28;20040;-62
2023/04/27 01:01:20;;;;;;;12.35;6.70;;;;;;;4.17;83.63;99558.66;4943197;28;20142;-61
2023/04/27 01:03:48;;;;;;;13.90;5.78;;;;;;;3.77;85.60;99553.03;4940810;28;20044;-61
2023/04/27 01:06:16;;;;;;;9.90;5.68;;;;;;;4.10;82.02;99551.50;4944439;28;20047;-61
2023/04/27 01:08:45;;;;;;;12.43;6.07;;;;;;;4.36;81.79;99563.31;4944638;28;20063;-61
2023/04/27 01:11:12;;;;;;;11.75;5.80;;;;;;;4.36;82.39;99568.59;4946683;28;20063;-61
2023/04/27 01:13:40;;;;;;;9.43;5.80;;;;;;;4.14;78.49;99567.03;4939833;28;20443;-61
2023/04/27 01:16:07;;;;;;;12.73;5.78;;;;;;;4.13;79.44;99562.75;4943186;28;20074;-61
2023/04/27 01:18:35;;;;;;;12.23;6.43;;;;;;;4.10;76.98;99567.41;4953812;28;20047;-61
2023/04/27 01:21:03;;;;;;;12.20;6.10;;;;;;;4.09;77.76;99557.81;4944945;28;20146;-61
2023/04/27 01:23:33;;;;;;;14.00;6.10;;;;;;;4.25;79.38;99567.31;4944242;28;20050;-62
2023/04/27 01:26:00;;;;;;;11.55;5.78;;;;;;;4.13;80.90;99562.75;4944195;28;20043;-61
2023/04/27 01:28:28;;;;;;;10.65;5.97;;;;;;;4.11;77.62;99563.72;4945276;28;20075;-61
2023/04/27 01:30:55;;;;;;;11.35;6.38;;;;;;;4.00;76.72;99556.31;4921964;29;20068;-61
2023/04/27 01:33:25;;;;;;;12.50;5.88;;;;;;;4.24;81.14;99565.69;4949020;28;20454;-61
2023/04/27 01:35:52;;;;;;;10.98;6.50;;;;;;;4.18;77.30;99561.13;4953583;28;20391;-61
2023/04/27 01:38:20;;;;;;;16.73;6.20;;;;;;;4.06;77.32;99563.50;4945412;28;20055;-61
2023/04/27 01:40:48;;;;;;;11.38;6.00;;;;;;;4.05;77.91;99556.56;4940978;28;20150;-61
2023/04/27 01:43:15;;;;;;;14.85;5.97;;;;;;;3.99;76.57;99562.59;4944330;28;20051;-61
2023/04/27 01:45:43;;;;;;;17.55;6.50;;;;;;;3.88;78.09;99560.50;4952742;28;20632;-61
2023/04/27 01:48:10;;;;;;;21.23;6.32;;;;;;;3.72;80.14;99555.44;4940168;28;20790;-61
2023/04/27 01:50:37;;;;;;;17.63;6.43;;;;;;;3.51;80.18;99554.44;4942357;28;20043;-61
2023/04/27 01:53:07;;;;;;;10.45;5.70;;;;;;;3.74;79.22;99556.06;4937620;28;20455;-61
2023/04/27 01:55:34;;;;;;;13.48;6.60;;;;;;;3.72;79.31;99555.44;4945819;28;20492;-61
2023/04/27 01:58:03;;;;;;;17.38;6.72;;;;;;;3.56;79.28;99556.50;4944483;28;20051;-61
2023/04/27 02:00:31;;;;;;;14.98;6.05;;;;;;;3.74;79.92;99564.03;4931255;28;20548;-61
2023/04/27 02:02:59;;;;;;;14.48;6.10;;;;;;;3.75;79.68;99557.72;4942785;28;20055;-62
2023/04/27 02:05:27;;;;;;;10.43;6.25;;;;;;;3.80;81.65;99565.94;4951609;28;20050;-61
2023/04/27 02:07:54;;;;;;;18.50;6.57;;;;;;;3.73;82.40;99573.81;4945486;28;20043;-61
2023/04/27 02:10:23;;;;;;;12.15;6.97;;;;;;;3.59;86.17;99574.69;4938829;28;20127;-61
2023/04/27 02:12:55;;;;;;;10.73;6.38;;;;;;;3.40;87.75;99581.44;4937551;28;20558;-61
2023/04/27 02:15:24;;;;;;;12.43;6.88;;;;;;;3.23;88.57;99579.00;4940968;28;20059;-61
2023/04/27 02:17:54;;;;;;;10.20;6.25;;;;;;;3.20;88.75;99576.72;4946283;28;20045;-61
2023/04/27 02:20:21;;;;;;;13.13;6.63;;;;;;;3.21;89.62;99573.06;4941262;28;21097;-62
2023/04/27 02:22:49;;;;;;;12.73;7.18;;;;;;;3.12;89.27;99576.84;4939261;28;20044;-61
2023/04/27 02:25:17;;;;;;;15.80;7.05;;;;;;;3.25;88.33;99570.88;4943541;28;20054;-61
2023/04/27 02:27:45;;;;;;;11.18;7.15;;;;;;;3.26;88.45;99574.34;4952023;28;20055;-61
2023/04/27 02:30:14;;;;;;;14.48;7.32;;;;;;;3.39;89.05;99574.47;4943345;28;20047;-61
2023/04/27 02:32:43;;;;;;;12.98;6.82;;;;;;;3.31;89.04;99579.91;4939840;28;20045;-61
2023/04/27 02:35:11;;;;;;;12.13;6.90;;;;;;;3.30;89.55;99578.28;4941990;28;20048;-61
2023/04/27 02:37:38;;;;;;;12.98;6.72;;;;;;;3.28;90.67;99574.97;4940004;28;20055;-62
2023/04/27 02:40:09;;;;;;;14.50;7.25;;;;;;;3.47;91.17;99569.09;4949093;28;20576;-61
2023/04/27 02:42:37;;;;;;;16.08;7.05;;;;;;;3.60;90.71;99579.00;4945307;28;20063;-62
2023/04/27 02:45:06;;;;;;;13.35;7.28;;;;;;;3.54;85.81;99569.94;4942927;28;20457;-61
2023/04/27 02:47:33;;;;;;;14.65;6.13;;;;;;;3.84;84.73;99575.13;4930916;28;20475;-61
2023/04/27 02:50:02;;;;;;;10.90;6.43;;;;;;;3.87;81.45;99572.13;4944923;28;20067;-61
2023/04/27 02:52:33;;;;;;;12.15;6.53;;;;;;;3.74;81.30;99564.03;4944563;28;20098;-61
2023/04/27 02:55:00;;;;;;;14.70;6.90;;;;;;;3.67;81.23;99564.78;4948438;28;20123;-61
2023/04/27 02:57:27;;;;;;;16.60;7.30;;;;;;;3.72;81.58;99555.44;4926854;28;20134;-61
2023/04/27 02:59:54;;;;;;;12.65;6.95;;;;;;;3.78;81.12;99560.00;4938320;28;20320;-61
2023/04/27 03:02:21;;;;;;;15.35;7.35;;;;;;;3.87;81.44;99549.06;4937958;28;20047;-61
2023/04/27 03:04:53;;;;;;;12.80;6.45;;;;;;;3.77;81.76;99543.28;4939999;28;20036;-61
2023/04/27 03:07:22;;;;;;;16.70;7.10;;;;;;;3.58;82.48;99549.19;4945356;28;20460;-61
2023/04/27 03:09:49;;;;;;;13.90;7.03;;;;;;;3.46;82.44;99546.22;4942993;28;20038;-61
2023/04/27 03:12:16;;;;;;;15.07;7.10;;;;;;;3.55;83.05;99541.63;4941271;28;20059;-61
2023/04/27 03:14:43;;;;;;;12.48;6.38;;;;;;;3.43;82.05;99543.97;4939571;28;20125;-61
2023/04/27 03:17:10;;;;;;;12.27;6.50;;;;;;;3.41;85.09;99548.63;4941199;28;20092;-61
2023/04/27 03:19:37;;;;;;;13.55;7.50;;;;;;;3.28;85.43;99551.94;4958932;28;20046;-61
2023/04/27 03:22:04;;;;;;;13.23;6.72;;;;;;;2.93;88.06;99549.09;4950347;28;20085;-62
2023/04/27 03:24:33;;;;;;;17.58;6.88;;;;;;;3.00;88.16;99547.34;4945519;28;20532;-61
2023/04/27 03:27:01;;;;;;;16.08;6.95;;;;;;;3.20;88.18;99546.78;4949659;28;20049;-61
2023/04/27 03:29:28;;;;;;;14.15;7.30;;;;;;;2.79;88.62;99553.38;4948424;28;20047;-61
2023/04/27 03:31:55;;;;;;;13.20;8.13;;;;;;;2.86;90.63;99547.38;4942122;28;20050;-61
2023/04/27 03:34:22;;;;;;;10.68;7.05;;;;;;;3.02;94.90;99561.25;4942193;28;20133;-61
2023/04/27 03:36:49;;;;;;;21.42;8.45;;;;;;;2.71;90.10;99564.09;4940855;28;20043;-61
2023/04/27 03:39:16;;;;;;;16.25;7.80;;;;;;;2.48;91.18;99558.88;4944641;28;20486;-61
2023/04/27 03:41:45;;;;;;;14.85;7.55;;;;;;;2.55;93.33;99553.69;4936054;28;20131;-61
2023/04/27 03:44:12;;;;;;;19.13;7.47;;;;;;;2.45;91.54;99559.25;4949475;28;20410;-61
2023/04/27 03:46:39;;;;;;;18.98;7.40;;;;;;;2.63;92.76;99564.19;4939379;28;20402;-61
2023/04/27 03:49:06;;;;;;;14.45;7.72;;;;;;;2.83;90.13;99563.63;4951529;28;20051;-62
2023/04/27 03:51:33;;;;;;;11.90;7.03;;;;;;;2.78;87.91;99570.28;4931233;28;20512;-61
2023/04/27 03:54:00;;;;;;;19.17;11.02;;;;;;;3.02;90.42;99577.13;4938312;28;20126;-62
2023/04/27 03:56:28;;;;;;;14.43;8.23;;;;;;;3.29;89.49;99577.41;4952987;28;20034;-62
2023/04/27 03:58:57;;;;;;;15.02;8.13;;;;;;;3.33;85.93;99572.59;4941388;28;20312;-61
2023/04/27 04:01:33;;;;;;;16.20;8.68;;;;;;;3.28;86.71;99578.44;4936473;28;20105;-61
2023/04/27 04:04:00;;;;;;;19.25;7.95;;;;;;;3.16;89.45;99578.09;4944075;28;20224;-61
2023/04/27 04:06:27;;;;;;;12.98;7.72;;;;;;;3.34;91.85;99574.22;4944235;28;20590;-61
2023/04/27 04:08:56;;;;;;;12.13;8.07;;;;;;;3.24;87.76;99585.94;4937982;28;20490;-61
2023/04/27 04:11:23;;;;;;;18.30;8.30;;;;;;;3.16;86.19;99577.28;4944734;28;20432;-61
2023/04/27 04:13:54;;;;;;;17.42;7.70;;;;;;;3.31;91.24;99582.53;4951711;28;20044;-61
2023/04/27 04:16:22;;;;;;;17.55;8.18;;;;;;;3.28;88.79;99582.94;4951306;28;20608;-61
2023/04/27 04:18:50;;;;;;;13.10;8.07;;;;;;;3.44;88.37;99580.03;4950205;28;20047;-61
2023/04/27 04:21:17;;;;;;;16.35;8.85;;;;;;;3.50;87.72;99579.31;4940757;28;20442;-61
2023/04/27 04:23:44;;;;;;;16.75;8.25;;;;;;;3.44;86.34;99574.72;4946506;28;20051;-61
2023/04/27 04:26:12;;;;;;;16.77;7.60;;;;;;;3.64;88.77;99578.44;4946452;28;20043;-61
2023/04/27 04:28:39;;;;;;;15.35;8.70;;;;;;;4.05;85.38;99577.78;4948600;28;20055;-61
2023/04/27 04:31:08;;;;;;;15.90;8.85;;;;;;;3.66;86.46;99573.75;4948733;28;20099;-62
2023/04/27 04:33:36;;;;;;;16.48;8.55;;;;;;;3.61;88.53;99583.28;4947586;28;20039;-61
2023/04/27 04:36:04;;;;;;;16.23;8.40;;;;;;;3.52;85.81;99582.59;4940754;28;20091;-62
2023/04/27 04:38:31;;;;;;;13.73;8.32;;;;;;;3.56;88.48;99583.84;4948190;28;20044;-61
2023/04/27 04:40:59;;;;;;;17.02;8.63;;;;;;;3.41;89.02;99588.38;4949765;28;20053;-61
2023/04/27 04:43:27;;;;;;;33.05;8.63;;;;;;;3.38;88.32;99591.41;4942631;28;20070;-61
2023/04/27 04:45:54;;;;;;;12.45;8.40;;;;;;;3.28;88.81;99598.81;4943761;28;20516;-61
2023/04/27 04:48:21;;;;;;;12.30;7.63;;;;;;;3.06;90.15;99597.94;4951106;28;20107;-61
2023/04/27 04:50:49;;;;;;;21.52;9.32;;;;;;;2.97;89.66;99600.69;4943445;28;20533;-61
2023/04/27 04:53:17;;;;;;;17.40;7.95;;;;;;;3.21;89.16;99604.03;4938257;28;20055;-62
2023/04/27 04:55:44;;;;;;;15.07;7.60;;;;;;;3.23;88.76;99610.78;4944309;28;20568;-61
2023/04/27 04:58:11;;;;;;;11.85;7.97;;;;;;;3.19;89.68;99598.09;4943462;28;20052;-61
2023/04/27 05:00:38;;;;;;;12.05;7.55;;;;;;;3.17;89.59;99600.94;4940515;28;20044;-61
2023/04/27 05:03:06;;;;;;;18.40;8.82;;;;;;;3.48;91.74;99607.81;4942635;28;20117;-61
2023/04/27 05:05:33;;;;;;;16.15;8.57;;;;;;;3.83;89.83;99611.44;4945249;28;20536;-61
2023/04/27 05:08:01;;;;;;;15.90;7.80;;;;;;;4.07;90.97;99606.78;4938744;28;20067;-61
2023/04/27 05:10:28;;;;;;;13.45;8.73;;;;;;;4.34;88.91;99602.47;4939760;28;20051;-61
2023/04/27 05:12:55;;;;;;;15.73;8.77;;;;;;;4.38;85.35;99610.88;4943669;28;20102;-61
2023/04/27 05:15:22;;;;;;;20.77;9.68;;;;;;;4.60;81.92;99606.34;4938908;28;20047;-61
2023/04/27 05:17:49;;;;;;;17.10;8.63;;;;;;;4.56;83.26;99615.72;4949204;28;20094;-61
2023/04/27 05:20:17;;;;;;;17.95;9.30;;;;;;;4.85;81.22;99607.53;4949741;28;20051;-61
2023/04/27 05:22:44;;;;;;;16.30;8.63;;;;;;;5.04;80.16;99618.44;4944903;28;20095;-61
2023/04/27 05:25:12;;;;;;;16.02;8.07;;;;;;;6.53;75.88;99607.72;4937858;28;20139;-61
2023/04/27 05:27:40;;;;;;;15.68;7.75;;;;;;;7.39;69.74;99609.34;4938542;28;20094;-61
2023/04/27 05:30:08;;;;;;;13.55;7.47;;;;;;;6.08;75.52;99610.19;4944854;28;20070;-62
2023/04/27 05:32:36;;;;;;;12.45;7.40;;;;;;;5.56;78.72;99615.16;4941314;28;20054;-62
2023/04/27 05:35:04;;;;;;;12.55;7.32;;;;;;;5.25;80.78;99623.66;4940136;28;20090;-62
2023/04/27 05:37:31;;;;;;;15.43;8.35;;;;;;;5.27;81.27;99620.81;4942321;28;20047;-61
2023/04/27 05:39:59;;;;;;;17.40;8.38;;;;;;;4.88;82.81;99631.03;4943844;28;20145;-61
2023/04/27 05:42:27;;;;;;;17.55;8.32;;;;;;;4.74;83.13;99629.31;4946874;28;20078;-61
2023/04/27 05:44:54;;;;;;;17.05;8.38;;;;;;;4.64;84.29;99634.97;4943830;28;20050;-61
2023/04/27 05:47:21;;;;;;;12.50;8.40;;;;;;;4.72;84.71;99642.78;4942813;28;20043;-62
2023/04/27 05:49:51;;;;;;;11.75;8.05;;;;;;;5.00;83.83;99638.47;4943857;28;20127;-61
2023/04/27 05:52:18;;;;;;;12.77;8.93;;;;;;;5.06;82.44;99638.47;4945084;28;20069;-62
2023/04/27 05:54:47;;;;;;;13.65;9.15;;;;;;;5.16;81.88;99638.13;4953925;28;20953;-62
2023/04/27 05:57:14;;;;;;;11.27;8.27;;;;;;;5.37;81.14;99646.00;4948458;28;20501;-61
2023/04/27 05:59:42;;;;;;;19.55;8.63;;;;;;;5.36;81.14;99649.66;4944567;28;20138;-64
2023/04/27 06:02:09;;;;;;;19.17;8.38;;;;;;;5.73;79.73;99650.22;4937097;28;20044;-61
2023/04/27 06:04:37;;;;;;;14.65;8.48;;;;;;;5.97;77.57;99648.06;4938866;28;20044;-61
2023/04/27 06:07:08;;;;;;;15.27;8.60;;;;;;;5.71;77.57;99652.25;4939663;28;20055;-61
2023/04/27 06:09:35;;;;;;;20.33;9.07;;;;;;;5.73;80.34;99660.84;4934924;28;20052;-61
2023/04/27 06:12:03;;;;;;;15.45;9.07;;;;;;;6.09;78.09;99654.41;4946285;28;20047;-61
2023/04/27 06:14:30;;;;;;;21.85;9.85;;;;;;;6.12;75.33;99647.88;4942614;28;20135;-61
2023/04/27 06:16:58;;;;;;;18.75;9.65;;;;;;;6.45;73.70;99655.88;4946468;28;20750;-61
2023/04/27 06:19:25;;;;;;;20.02;9.80;;;;;;;7.00;70.97;99656.41;4944758;28;20190;-61
2023/04/27 06:21:53;;;;;;;19.38;10.23;;;;;;;7.35;70.58;99666.78;4951431;28;20047;-61
2023/04/27 06:24:20;;;;;;;19.10;9.50;;;;;;;7.24;71.35;99662.09;4950414;28;20051;-61
2023/04/27 06:26:47;;;;;;;15.02;8.50;;;;;;;7.76;70.19;99663.75;4946266;28;20339;-61
2023/04/27 06:29:14;;;;;;;17.25;9.43;;;;;;;7.61;69.21;99657.03;4940717;28;20062;-61
2023/04/27 06:31:41;;;;;;;18.65;9.88;;;;;;;7.53;69.89;99666.91;4958545;28;20050;-61
2023/04/27 06:34:10;;;;;;;20.60;9.20;;;;;;;7.24;71.20;99662.09;4944176;28;20502;-61
2023/04/27 06:36:37;;;;;;;16.20;8.98;;;;;;;7.99;67.76;99665.84;4938769;28;20043;-61
2023/04/27 06:39:04;;;;;;;24.23;9.05;;;;;;;8.31;69.31;99673.88;4945681;28;20047;-61
2023/04/27 06:41:32;;;;;;;21.13;9.20;;;;;;;8.14;67.52;99670.09;4942546;28;20034;-61
2023/04/27 06:44:00;;;;;;;16.33;8.52;;;;;;;9.20;65.31;99666.50;4953945;28;20044;-62
2023/04/27 06:46:28;;;;;;;17.33;8.75;;;;;;;9.28;63.24;99674.25;4942896;28;20053;-61
2023/04/27 06:48:55;;;;;;;21.85;8.93;;;;;;;9.54;61.81;99671.47;4945239;28;20508;-61
2023/04/27 06:51:24;;;;;;;17.85;8.05;;;;;;;10.34;57.59;99661.31;4954609;28;20055;-62
2023/04/27 06:53:51;;;;;;;18.13;8.30;;;;;;;11.28;58.27;99668.53;4945794;28;20048;-62
2023/04/27 06:56:18;;;;;;;23.20;9.73;;;;;;;11.90;56.79;99672.47;4950811;28;20047;-62
2023/04/27 06:58:45;;;;;;;23.90;9.02;;;;;;;12.74;50.80;99668.00;4949103;28;20504;-61
2023/04/27 07:01:12;;;;;;;17.13;8.98;;;;;;;13.67;48.63;99670.06;4949895;28;20691;-61
2023/04/27 07:03:39;;;;;;;13.85;9.05;;;;;;;14.30;46.53;99666.94;4945576;28;20102;-62
2023/04/27 07:06:06;;;;;;;18.77;8.30;;;;;;;15.82;43.80;99665.44;4946370;28;20280;-62
2023/04/27 07:08:35;;;;;;;14.98;7.65;;;;;;;15.26;44.33;99664.13;4941210;28;20075;-62
2023/04/27 07:11:02;;;;;;;20.13;8.07;;;;;;;15.83;43.89;99662.47;4954513;28;20058;-61
2023/04/27 07:13:30;;;;;;;22.15;8.07;;;;;;;17.09;39.82;99674.69;4951617;28;20067;-62
2023/04/27 07:15:57;;;;;;;18.52;8.35;;;;;;;15.81;41.65;99658.44;4951265;28;20043;-62
2023/04/27 07:18:26;;;;;;;27.08;8.65;;;;;;;15.83;42.83;99656.28;4947370;28;20051;-62
2023/04/27 07:20:53;;;;;;;31.60;9.48;;;;;;;16.27;42.78;99661.19;4948756;28;20521;-62
2023/04/27 07:23:21;;;;;;;23.58;7.97;;;;;;;16.60;41.35;99660.66;4945763;28;20043;-62
2023/04/27 07:25:50;;;;;;;26.50;9.52;;;;;;;16.59;41.97;99664.44;4938787;28;20458;-62
2023/04/27 07:28:17;;;;;;;32.20;9.07;;;;;;;15.51;43.60;99654.50;4951969;28;20492;-62
2023/04/27 07:30:44;;;;;;;23.73;8.77;;;;;;;16.01;42.84;99658.47;4951826;28;20086;-62
2023/04/27 07:33:13;;;;;;;25.65;9.07;;;;;;;15.24;41.49;99660.88;4938157;28;20055;-62
2023/04/27 07:35:40;;;;;;;20.80;8.60;;;;;;;13.94;42.31;99658.50;4938399;28;20039;-62
2023/04/27 07:38:07;;;;;;;24.25;8.70;;;;;;;14.58;42.49;99657.78;4940120;28;20410;-63
2023/04/27 07:40:35;;;;;;;22.90;8.55;;;;;;;15.12;42.36;99641.38;4945800;28;20472;-62
2023/04/27 07:43:04;;;;;;;19.88;8.43;;;;;;;15.76;39.61;99661.13;4947989;28;20047;-61
2023/04/27 07:45:31;;;;;;;16.02;8.55;;;;;;;12.76;45.42;99650.81;4940388;28;20141;-63
2023/04/27 07:47:59;;;;;;;15.50;8.13;;;;;;;13.89;44.99;99648.50;4941510;28;20044;-61
2023/04/27 07:50:27;;;;;;;18.30;8.68;;;;;;;13.59;43.25;99652.47;4942261;28;20047;-62
2023/04/27 07:52:55;;;;;;;18.75;8.60;;;;;;;13.99;43.08;99655.88;4938771;28;20054;-63
2023/04/27 07:55:22;;;;;;;19.45;8.85;;;;;;;12.91;45.13;99662.59;4946360;28;20618;-63
2023/04/27 07:57:49;;;;;;;22.17;9.40;;;;;;;11.71;48.25;99667.28;4942313;28;20127;-63
2023/04/27 08:00:18;;;;;;;19.75;8.60;;;;;;;12.21;46.90;99661.22;4944321;28;20387;-61
2023/04/27 08:02:45;;;;;;;21.50;8.85;;;;;;;12.42;47.30;99664.25;4942357;28;20364;-61
2023/04/27 08:05:12;;;;;;;19.65;8.85;;;;;;;13.40;45.20;99663.81;4946315;28;20051;-60
2023/04/27 08:07:40;;;;;;;18.88;8.52;;;;;;;13.90;43.60;99655.50;4948884;28;20493;-61
2023/04/27 08:10:08;;;;;;;20.27;8.55;;;;;;;13.13;44.62;99654.56;4951380;28;20064;-61
2023/04/27 08:12:35;;;;;;;20.35;7.72;;;;;;;13.88;43.35;99654.13;4947434;28;20058;-61
2023/04/27 08:15:02;;;;;;;14.23;8.43;;;;;;;13.25;43.37;99659.00;4940078;28;20438;-61
2023/04/27 08:17:31;;;;;;;21.10;8.18;;;;;;;13.32;43.02;99657.00;4952647;28;20042;-61
2023/04/27 08:19:58;;;;;;;14.70;8.15;;;;;;;13.17;43.77;99660.25;4945175;28;20108;-61
2023/04/27 08:22:25;;;;;;;18.52;8.18;;;;;;;14.16;41.70;99658.47;4949833;28;20076;-61
2023/04/27 08:24:52;;;;;;;16.55;7.65;;;;;;;12.92;43.52;99652.66;4938234;28;20062;-61
2023/04/27 08:27:19;;;;;;;21.42;8.23;;;;;;;12.51;43.92;99660.13;4941306;28;20494;-61
2023/04/27 08:29:47;;;;;;;15.40;7.72;;;;;;;12.23;44.54;99664.50;4945200;28;20410;-61
2023/04/27 08:32:14;;;;;;;17.60;8.18;;;;;;;12.57;44.00;99656.44;4934948;28;20113;-61
2023/04/27 08:34:43;;;;;;;15.40;7.55;;;;;;;12.89;43.62;99661.22;4942127;28;20039;-61
2023/04/27 08:37:10;;;;;;;15.10;7.63;;;;;;;12.40;44.61;99653.75;4949290;28;20063;-61
2023/04/27 08:39:38;;;;;;;19.27;7.90;;;;;;;11.96;43.70;99644.66;4939726;28;20667;-63
2023/04/27 08:42:11;;;;;;;12.82;8.23;;;;;;;11.45;47.33;99639.91;4937365;28;20079;-60
2023/04/27 08:44:39;;;;;;;20.70;8.13;;;;;;;12.48;45.67;99636.38;4942834;28;20051;-63
2023/04/27 08:47:07;;;;;;;16.30;7.57;;;;;;;12.33;44.42;99623.53;4939966;28;20039;-63
2023/04/27 08:49:34;;;;;;;15.02;7.90;;;;;;;12.60;43.50;99629.03;4945382;28;20051;-63
2023/04/27 08:52:02;;;;;;;21.40;8.10;;;;;;;12.68;43.90;99634.03;4952768;28;20039;-62
2023/04/27 08:54:29;;;;;;;19.88;7.55;;;;;;;13.81;41.99;99622.00;4944611;28;20122;-62
2023/04/27 08:56:57;;;;;;;18.38;6.70;;;;;;;14.61;41.55;99619.47;4940952;28;20044;-63
2023/04/27 08:59:24;;;;;;;16.58;7.00;;;;;;;13.57;42.29;99622.28;4941130;28;20098;-63
2023/04/27 09:01:51;;;;;;;19.05;7.80;;;;;;;13.13;42.33;99624.97;4943880;28;20501;-62
2023/04/27 09:04:18;;;;;;;15.05;7.85;;;;;;;12.32;43.97;99621.09;4940391;28;20135;-62
2023/04/27 09:06:45;;;;;;;14.20;7.22;;;;;;;12.95;43.77;99622.56;4944015;28;20050;-62
2023/04/27 09:09:23;;;;;;;15.73;7.10;;;;;;;13.99;42.18;99624.34;4940033;28;20054;-62
2023/04/27 09:11:50;;;;;;;17.08;7.35;;;;;;;14.54;42.44;99622.41;4946732;28;20107;-61
2023/04/27 09:14:17;;;;;;;14.68;7.75;;;;;;;14.90;40.71;99628.00;4941521;28;20573;-60
2023/04/27 09:16:45;;;;;;;13.63;7.43;;;;;;;15.05;41.04;99619.19;4945126;28;20796;-63
2023/04/27 09:19:15;;;;;;;15.85;7.78;;;;;;;14.77;40.67;99625.78;4941223;28;20050;-63
2023/04/27 09:21:45;;;;;;;21.83;7.85;;;;;;;14.12;41.43;99633.06;4936871;28;20051;-63
2023/04/27 09:24:12;;;;;;;21.97;8.57;;;;;;;14.13;40.76;99624.75;4942167;28;20580;-63
2023/04/27 09:26:41;;;;;;;19.67;7.60;;;;;;;14.55;40.33;99615.09;4949099;28;20409;-62
2023/04/27 09:29:09;;;;;;;14.40;7.40;;;;;;;13.43;42.19;99615.69;4941952;28;20098;-62
2023/04/27 09:31:36;;;;;;;16.92;7.68;;;;;;;14.07;41.90;99616.84;4938116;28;20409;-62
2023/04/27 09:34:03;;;;;;;17.20;8.45;;;;;;;14.15;42.09;99617.22;4943806;28;20184;-62
2023/04/27 09:36:31;;;;;;;17.42;7.88;;;;;;;13.77;40.81;99620.88;4948888;28;20109;-61
2023/04/27 09:38:58;;;;;;;17.80;7.72;;;;;;;13.99;42.29;99618.94;4943410;28;20039;-62
2023/04/27 09:41:25;;;;;;;14.70;7.38;;;;;;;14.72;41.56;99614.97;4935636;28;20139;-62
2023/04/27 09:43:53;;;;;;;19.50;7.70;;;;;;;15.15;40.22;99611.16;4940845;28;20040;-62
2023/04/27 09:46:21;;;;;;;16.60;7.13;;;;;;;15.63;40.09;99608.38;4933797;28;20047;-62
2023/04/27 09:48:50;;;;;;;;;;;;;;;15.83;39.38;99607.63;4936027;28;20086;-62
2023/04/27 09:51:17;;;;;;;15.30;7.78;;;;;;;16.78;36.76;99607.09;4954864;28;19965;-62
2023/04/27 09:53:46;;;;;;;18.38;7.30;;;;;;;14.80;39.19;99596.41;4945346;28;20494;-61
2023/04/27 09:56:27;;;;;;;21.98;8.00;;;;;;;15.57;39.60;99588.59;4948350;28;20106;-61
2023/04/27 09:59:07;;;;;;;17.27;8.20;;;;;;;13.67;41.88;99591.16;4935851;28;20071;-61
2023/04/27 10:01:43;;;;;;;20.33;8.27;;;;;;;12.90;43.34;99592.91;4939357;28;20047;-61
2023/04/27 10:04:23;;;;;;;16.90;7.68;;;;;;;14.15;41.66;99584.88;4937755;28;20131;-62
2023/04/27 10:07:00;;;;;;;18.58;7.72;;;;;;;14.17;41.42;99581.91;4938192;28;20043;-62
2023/04/27 10:09:30;;;;;;;21.63;7.20;;;;;;;14.76;41.04;99584.50;4935062;28;20038;-63
2023/04/27 10:11:57;;;;;;;14.27;7.85;;;;;;;15.44;40.48;99581.00;4942504;28;20137;-61
2023/04/27 10:14:25;;;;;;;14.55;7.00;;;;;;;15.32;39.52;99582.06;4948415;28;20048;-61
2023/04/27 10:16:53;;;;;;;15.77;7.57;;;;;;;15.39;40.27;99584.50;4950042;28;20054;-61
2023/04/27 10:19:20;;;;;;;22.33;7.93;;;;;;;16.15;37.92;99593.88;4939979;28;20054;-61
2023/04/27 10:21:59;;;;;;;17.90;8.02;;;;;;;13.43;42.81;99591.44;4943643;28;20048;-61
2023/04/27 10:24:36;;;;;;;18.63;7.90;;;;;;;14.98;40.74;99581.66;4942413;28;20279;-63
2023/04/27 10:27:05;;;;;;;15.63;7.15;;;;;;;15.89;38.96;99590.31;4941281;28;20064;-60
2023/04/27 10:29:37;;;;;;;19.10;7.63;;;;;;;16.79;38.97;99584.34;4941288;28;20039;-61
2023/04/27 10:32:08;;;;;;;14.25;7.22;;;;;;;17.25;38.42;99578.78;4946894;28;20051;-61
2023/04/27 10:34:36;;;;;;;15.65;6.88;;;;;;;17.22;36.97;99579.31;4939265;28;20050;-61
2023/04/27 10:37:06;;;;;;;18.95;7.45;;;;;;;15.43;39.49;99576.69;4948226;28;20044;-61
2023/04/27 10:39:35;;;;;;;18.88;7.95;;;;;;;14.22;41.08;99574.66;4955476;28;20039;-61
2023/04/27 10:42:02;;;;;;;17.63;7.30;;;;;;;15.46;40.26;99565.34;4937613;28;20052;-61
2023/04/27 10:44:30;;;;;;;16.10;7.60;;;;;;;15.11;40.04;99564.16;4940845;28;20046;-61
2023/04/27 10:47:00;;;;;;;15.85;7.72;;;;;;;15.82;39.22;99563.53;4936279;28;20134;-61
2023/04/27 10:49:27;;;;;;;;;;;;;;;16.14;38.19;99559.78;4943545;28;20119;-61
2023/04/27 10:51:55;;;;;;;14.23;7.03;;;;;;;17.21;37.97;99559.53;4935956;28;20643;-61
2023/04/27 10:54:26;;;;;;;18.45;7.75;;;;;;;16.34;39.25;99559.75;4939382;28;20067;-62
2023/04/27 10:56:53;;;;;;;19.45;7.70;;;;;;;16.35;37.03;99550.59;4935698;28;20397;-62
2023/04/27 10:59:21;;;;;;;18.08;7.90;;;;;;;16.11;37.81;99549.50;4939036;28;20075;-62
2023/04/27 11:01:48;;;;;;;12.07;6.97;;;;;;;15.73;38.32;99554.38;4945154;28;20490;-62
2023/04/27 11:04:18;;;;;;;12.20;6.50;;;;;;;16.07;38.16;99549.22;4948963;28;20056;-62
2023/04/27 11:06:45;;;;;;;16.05;6.88;;;;;;;17.29;37.57;99539.19;4944089;28;20142;-62
2023/04/27 11:09:13;;;;;;;15.38;7.75;;;;;;;15.83;37.37;99540.88;4944891;28;20051;-61
2023/04/27 11:11:44;;;;;;;18.95;7.15;;;;;;;16.86;37.00;99532.63;4941449;28;20039;-61
2023/04/27 11:14:16;;;;;;;16.55;6.70;;;;;;;16.97;37.70;99529.63;4944678;28;20538;-61
2023/04/27 11:16:47;;;;;;;16.73;7.82;;;;;;;14.01;40.62;99522.50;4939822;28;20051;-61
2023/04/27 11:19:15;;;;;;;13.23;6.97;;;;;;;14.00;40.88;99522.72;4945148;28;20051;-60
2023/04/27 11:21:43;;;;;;;12.02;7.10;;;;;;;13.73;41.77;99530.88;4943917;28;20052;-62
2023/04/27 11:24:11;;;;;;;16.90;7.25;;;;;;;15.07;39.56;99525.25;4939884;28;20215;-62
2023/04/27 11:26:38;;;;;;;15.23;7.53;;;;;;;15.49;39.35;99521.59;4947053;28;20050;-62
2023/04/27 11:29:08;;;;;;;17.08;8.07;;;;;;;16.08;40.22;99523.84;4952231;28;20046;-62
2023/04/27 11:31:39;;;;;;;18.50;8.00;;;;;;;17.31;38.41;99512.63;4943244;28;20079;-62
2023/04/27 11:34:06;;;;;;;13.90;7.82;;;;;;;17.33;37.97;99515.88;4949760;28;20043;-62
2023/04/27 11:36:34;;;;;;;18.70;7.82;;;;;;;17.71;37.44;99508.03;4949133;28;20047;-62